Tennessee, IL

9:59 PM CDT on July 15, 2019 (GMT -0500)
Tennessee | | Change Station
Active Advisory: Excessive Heat Watch

Elev 659 ft 40.42 °N, 90.88 °W | Updated 1 minute ago

Overcast
Overcast
70.5 °F
Feels Like 70.5 °F
N
0.7
Wind Variable Wind from WNW
Gusts 1.1 mph

Today
High -- | Low -- °F
--% Chance of Precip.
Yesterday
High -- | Low -- °F
Precip. -- in
Pressure 29.99 in
Visibility 10.0 miles
Clouds Mostly Cloudy 1000 ft
Overcast 1800 ft
Dew Point 69 °F
Humidity 94%
Rainfall 0.00 in
Snow Depth Not available.
5:45 AM 8:32 PM
Waxing Gibbous, 99% visible
METAR KMQB 160255Z AUTO 10005KT 10SM BKN010 OVC018 22/20 A2999 RMK AO2 T02150200
Pressure 29.99 in
Visibility 10.0 miles
Clouds Mostly Cloudy 1000 ft
Overcast 1800 ft
Dew Point 69 °F
Humidity 94%
Rainfall 0.00 in
Snow Depth Not available.
5:45 AM 8:32 PM
Waxing Gibbous, 99% visible
METAR KMQB 160255Z AUTO 10005KT 10SM BKN010 OVC018 22/20 A2999 RMK AO2 T02150200

Get Your Daily Forecast Email!

Thanks for signing up!

Be on the lookout for a verification email in your inbox.

You'll start receiving severe weather alerts in your inbox..

×

10-Day Weather Forecast

Almanac

Astronomy

Jul. 15, 2019 Rise Set
Actual Time
Civil Twilight
Nautical Twilight
Astronomical Twilight
Moon
Length of Visible Light
Length of Day
Tomorrow will be .
, % of the Moon is Illuminated

Today's Extremes

State Highs State Lows

Community

WunderPhotos

Category 6

Welcome to Category 6. This is the collective home for Weather Underground's featured writeups by Dr. Jeff Masters (right), Bob Henson (left), Chris Burt, and other regular contributors.

Nearby

Air Quality

  Air Quality AQ Index Pollutant
Not available.

Snow Depth

Station Depth Elevation

Earthquake Activity

City Distance Mag. Time & Date
Minimum magnitude displayed is 2.5.

Coastal Water Temperatures

Place Temperature

Stations

Nearby Weather Stations

Station Location Temp. Windchill Dew Point Humidity Wind Precip. Elev Updated Type
                   

Watches & Warnings

Excessive Heat Watch
Issued: 3:13 PM CDT Jul. 15, 2019 – National Weather Service

... Excessive heat watch in effect from Wednesday afternoon
through Saturday evening...

The National Weather Service in Quad Cities has issued an
excessive heat watch, which is in effect from Wednesday afternoon
through Saturday evening.

* Heat index values... ranging from 100 to 110 due to temperatures
in the mid to upper 90s... and dewpoints in the low to mid 70s.

* Timing... Wednesday afternoon through Saturday evening.

* Impacts... heat-related illnesses may occur due to the prolonged
period of heat and humidity.

Precautionary/preparedness actions...

An excessive heat watch means that a prolonged period of hot
temperatures and high humidity is possible. This combination
could create a dangerous situation in which heat illnesses are
likely. Monitor later forecasts for updated information.